Time;durP1;ratioP1;P1;durP2;ratioP2;P2;SDS_P1;SDS_P2;PMS_P1;PMS_P2;Temp;Humidity;BMP_temperature;BMP_pressure;BME280_temperature;BME280_humidity;BME280_pressure;Samples;Min_cycle;Max_cycle;Signal;HPM_P1;HPM_P2
2023/01/06 00:01:37;;;;;;;0.88;0.88;;;;;;;10.43;88.62;101369.16;5123213;28;20117;-81
2023/01/06 00:04:07;;;;;;;0.30;0.30;;;;;;;10.55;87.68;101370.69;5125381;28;20099;-82
2023/01/06 00:06:38;;;;;;;0.47;0.47;;;;;;;10.40;87.05;101366.59;5111166;29;20039;-82
2023/01/06 00:09:08;;;;;;;0.82;0.82;;;;;;;10.46;86.19;101366.50;5122919;28;20047;-83
2023/01/06 00:11:39;;;;;;;0.25;0.25;;;;;;;10.42;85.67;101366.56;5108158;29;20090;-81
2023/01/06 00:14:09;;;;;;;0.20;0.20;;;;;;;10.41;85.07;101365.72;5124465;28;20039;-82
2023/01/06 00:16:40;;;;;;;3.58;2.05;;;;;;;10.46;85.09;101363.88;5130457;28;20386;-85
2023/01/06 00:19:10;;;;;;;0.30;0.30;;;;;;;10.43;85.76;101361.28;5124382;28;20592;-85
2023/01/06 00:21:41;;;;;;;0.38;0.38;;;;;;;10.47;85.98;101362.09;5126029;28;20128;-81
2023/01/06 00:24:11;;;;;;;0.20;0.20;;;;;;;10.46;85.75;101360.34;5124498;28;20043;-81
2023/01/06 00:26:42;;;;;;;0.20;0.20;;;;;;;10.48;85.29;101358.59;5126983;28;20050;-82
2023/01/06 00:29:12;;;;;;;0.30;0.30;;;;;;;10.50;85.32;101356.81;5124783;28;20040;-83
2023/01/06 00:31:43;;;;;;;0.35;0.35;;;;;;;10.44;83.67;101357.78;5127348;28;20659;-85
2023/01/06 00:34:13;;;;;;;0.30;0.30;;;;;;;10.47;83.19;101352.47;5134134;28;20063;-83
2023/01/06 00:36:44;;;;;;;0.20;0.20;;;;;;;10.52;83.43;101355.03;5128270;29;20039;-82
2023/01/06 00:39:14;;;;;;;0.25;0.25;;;;;;;10.50;83.67;101357.66;5123756;28;20229;-82
2023/01/06 00:42:03;;;;;;;0.20;0.20;;;;;;;10.55;84.13;101354.97;5124159;28;20027;-85
2023/01/06 00:44:36;;;;;;;0.20;0.20;;;;;;;10.51;83.56;101342.81;5125254;28;20494;-83
2023/01/06 00:47:08;;;;;;;0.40;0.40;;;;;;;10.45;83.18;101338.50;5123740;28;20039;-84
2023/01/06 00:49:39;;;;;;;0.63;0.63;;;;;;;10.43;83.46;101349.94;5103221;29;20133;-84
2023/01/06 00:52:10;;;;;;;0.22;0.22;;;;;;;10.43;83.08;101345.53;5106023;28;20071;-86
2023/01/06 00:54:41;;;;;;;1.60;1.50;;;;;;;10.50;83.31;101344.53;5109547;29;20556;-82
2023/01/06 00:57:12;;;;;;;0.20;0.20;;;;;;;10.50;82.56;101335.81;5124243;28;20041;-81
2023/01/06 00:59:42;;;;;;;2.00;1.85;;;;;;;10.54;83.17;101337.47;5125223;28;20039;-84
2023/01/06 01:02:13;;;;;;;0.30;0.30;;;;;;;10.52;83.08;101334.91;5124682;28;20031;-81
2023/01/06 01:04:44;;;;;;;0.30;0.30;;;;;;;10.55;83.19;101332.22;5109259;29;20598;-85
2023/01/06 01:07:14;;;;;;;0.30;0.30;;;;;;;10.49;83.32;101334.09;5123587;29;20099;-84
2023/01/06 01:09:45;;;;;;;0.40;0.40;;;;;;;10.59;83.40;101326.91;5121729;28;20042;-81
2023/01/06 01:12:15;;;;;;;0.30;0.30;;;;;;;10.55;83.11;101329.59;5139633;28;20031;-83
2023/01/06 01:14:52;;;;;;;0.25;0.25;;;;;;;10.55;83.30;101336.59;5129403;28;20046;-85
2023/01/06 01:17:26;;;;;;;0.30;0.30;;;;;;;10.62;82.81;101332.97;5140241;28;20031;-83
2023/01/06 01:19:58;;;;;;;0.93;0.80;;;;;;;10.66;83.37;101325.94;5105367;29;20028;-81
2023/01/06 01:22:29;;;;;;;0.30;0.30;;;;;;;10.69;82.73;101326.75;5112799;28;20028;-82
2023/01/06 01:25:00;;;;;;;0.30;0.30;;;;;;;10.62;82.68;101335.59;5124535;28;20046;-84
2023/01/06 01:27:30;;;;;;;0.20;0.20;;;;;;;10.56;82.15;101333.09;5106190;28;20035;-85
2023/01/06 01:30:01;;;;;;;1.80;1.70;;;;;;;10.59;82.07;101329.53;5134394;28;20419;-83
2023/01/06 01:32:31;;;;;;;0.40;0.40;;;;;;;10.55;81.81;101334.84;5109774;28;20039;-84
2023/01/06 01:35:02;;;;;;;0.40;0.40;;;;;;;10.63;82.17;101324.19;5120485;28;20036;-83
2023/01/06 01:37:32;;;;;;;0.25;0.25;;;;;;;10.68;82.02;101325.00;5129319;28;20062;-85
2023/01/06 01:40:03;;;;;;;0.20;0.20;;;;;;;10.62;81.38;101326.88;5103272;28;20062;-85
2023/01/06 01:42:34;;;;;;;0.28;0.28;;;;;;;10.59;81.09;101333.03;5101279;28;20027;-83
2023/01/06 01:45:16;;;;;;;0.30;0.30;;;;;;;10.67;81.92;101339.03;5121505;28;20035;-82
2023/01/06 01:47:54;;;;;;;0.38;0.38;;;;;;;10.66;80.88;101328.56;5101803;28;20073;-83
2023/01/06 01:50:46;;;;;;;0.20;0.20;;;;;;;10.63;80.56;101329.44;5120779;28;20027;-81
2023/01/06 01:53:16;;;;;;;0.25;0.25;;;;;;;10.52;80.18;101334.91;5105377;28;20043;-84
2023/01/06 01:55:49;;;;;;;0.20;0.20;;;;;;;10.62;81.24;101325.09;5123901;28;20050;-84
2023/01/06 01:58:33;;;;;;;0.20;0.20;;;;;;;10.58;80.39;101326.06;5117614;28;20050;-82
2023/01/06 02:01:07;;;;;;;0.20;0.20;;;;;;;10.52;80.40;101326.16;5127060;28;20375;-84
2023/01/06 02:03:39;;;;;;;1.65;1.48;;;;;;;10.55;79.93;101326.97;5122125;28;20110;-80
2023/01/06 02:06:15;;;;;;;0.22;0.22;;;;;;;10.54;80.23;101321.75;5112918;29;20571;-82
2023/01/06 02:09:01;;;;;;;0.45;0.45;;;;;;;10.46;79.92;101323.63;5109481;29;20046;-83
2023/01/06 02:11:34;;;;;;;9.82;1.75;;;;;;;10.51;79.92;101317.41;5107691;29;20031;-83
2023/01/06 02:14:11;;;;;;;0.43;0.43;;;;;;;10.51;79.44;101306.91;5125918;28;20047;-84
2023/01/06 02:17:12;;;;;;;2.65;1.73;;;;;;;10.49;79.06;101305.22;5133376;28;20027;-80
2023/01/06 02:20:14;;;;;;;0.20;0.20;;;;;;;10.48;79.17;101303.50;5110250;29;20042;-84
2023/01/06 02:22:58;;;;;;;0.20;0.20;;;;;;;10.41;77.00;101309.72;5106145;28;20031;-82
2023/01/06 02:25:54;;;;;;;0.30;0.30;;;;;;;10.39;76.81;101307.16;5121436;28;20031;-80
2023/01/06 02:28:43;;;;;;;2.65;1.90;;;;;;;10.43;75.58;101310.59;5104304;29;20040;-82
2023/01/06 02:31:16;;;;;;;0.63;0.63;;;;;;;10.34;75.16;101295.81;5116947;28;20039;-82
2023/01/06 02:33:54;;;;;;;0.65;0.65;;;;;;;10.38;74.53;101300.16;5117519;28;20036;-80
2023/01/06 02:36:52;;;;;;;0.38;0.38;;;;;;;10.37;73.81;101299.28;5100812;29;20035;-81
2023/01/06 02:39:51;;;;;;;0.30;0.30;;;;;;;10.36;74.29;101300.16;5114088;28;20043;-81
2023/01/06 02:42:38;;;;;;;0.20;0.20;;;;;;;10.33;74.25;101294.13;5100659;29;20038;-83
2023/01/06 02:45:46;;;;;;;0.30;0.30;;;;;;;10.41;73.31;101300.13;5121072;28;20050;-82
2023/01/06 02:48:16;;;;;;;0.30;0.30;;;;;;;10.30;73.34;101281.03;5118066;28;20529;-82
2023/01/06 02:51:10;;;;;;;1.63;1.52;;;;;;;10.37;73.93;101282.69;5106420;29;20035;-83
2023/01/06 02:54:01;;;;;;;0.90;0.90;;;;;;;10.37;74.48;101270.44;5115506;28;20633;-81
2023/01/06 02:56:38;;;;;;;0.30;0.30;;;;;;;10.32;74.96;101269.63;5102968;29;20191;-82
2023/01/06 02:59:19;;;;;;;0.52;0.52;;;;;;;10.41;75.45;101262.50;5120712;28;20066;-82
2023/01/06 03:01:53;;;;;;;0.30;0.30;;;;;;;10.45;75.71;101265.06;5110375;28;20724;-81
2023/01/06 03:04:30;;;;;;;0.30;0.30;;;;;;;10.38;75.93;101251.19;5123088;28;20040;-79
2023/01/06 03:07:03;;;;;;;0.20;0.20;;;;;;;10.37;76.13;101243.34;5117134;29;20068;-80
2023/01/06 03:09:36;;;;;;;0.20;0.20;;;;;;;10.46;76.30;101255.41;5116322;29;20562;-80
2023/01/06 03:12:15;;;;;;;0.30;0.30;;;;;;;10.41;77.61;101267.75;5123321;28;20502;-80
2023/01/06 03:14:50;;;;;;;0.75;0.75;;;;;;;10.42;77.69;101259.00;5110331;29;20043;-81
2023/01/06 03:17:21;;;;;;;15.13;1.20;;;;;;;10.42;77.65;101265.09;5123911;28;20223;-80
2023/01/06 03:19:52;;;;;;;0.40;0.40;;;;;;;10.40;77.76;101256.41;5111778;28;20230;-80
2023/01/06 03:22:24;;;;;;;0.30;0.30;;;;;;;10.38;77.91;101252.94;5123312;28;20114;-79
2023/01/06 03:24:54;;;;;;;1.85;1.52;;;;;;;10.43;78.17;101245.00;5115273;28;20027;-81
2023/01/06 03:27:26;;;;;;;1.13;1.02;;;;;;;10.46;77.84;101255.41;5124202;29;20604;-80
2023/01/06 03:29:57;;;;;;;0.30;0.30;;;;;;;10.42;78.05;101253.75;5132713;28;20043;-80
2023/01/06 03:32:42;;;;;;;0.20;0.20;;;;;;;10.44;78.16;101241.47;5122881;28;20035;-81
2023/01/06 03:35:34;;;;;;;0.20;0.20;;;;;;;10.49;78.02;101251.00;5112930;29;20139;-79
2023/01/06 03:38:53;;;;;;;7.32;1.15;;;;;;;10.41;78.25;101250.28;5123045;28;20367;-80
2023/01/06 03:44:51;;;;;;;0.30;0.30;;;;;;;10.54;78.32;101238.66;5137650;28;20058;-81
2023/01/06 03:47:44;;;;;;;0.22;0.22;;;;;;;10.50;78.53;101220.38;5125159;28;20039;-80
2023/01/06 03:50:31;;;;;;;0.47;0.47;;;;;;;10.47;77.52;101218.69;5119176;28;20043;-81
2023/01/06 03:53:16;;;;;;;0.20;0.20;;;;;;;10.47;77.51;101221.31;5121825;28;20039;-80
2023/01/06 03:56:11;;;;;;;0.38;0.38;;;;;;;10.57;77.71;101216.75;5109316;29;20031;-82
2023/01/06 03:58:45;;;;;;;0.68;0.40;;;;;;;10.46;77.13;101223.94;5109314;29;20050;-82
2023/01/06 04:01:16;;;;;;;0.28;0.28;;;;;;;10.49;76.94;101223.88;5120266;28;20158;-81
2023/01/06 04:03:48;;;;;;;0.20;0.20;;;;;;;10.48;77.06;101214.28;5108325;29;20051;-82
2023/01/06 04:06:18;;;;;;;0.30;0.30;;;;;;;10.37;76.50;101204.00;5105846;29;20066;-80
2023/01/06 04:08:49;;;;;;;0.30;0.30;;;;;;;10.38;76.36;101222.31;5123659;28;20047;-81
2023/01/06 04:14:11;;;;;;;0.50;0.50;;;;;;;10.45;76.14;101211.75;5135030;23;20047;-80
2023/01/06 04:16:52;;;;;;;0.30;0.30;;;;;;;10.43;75.74;101218.75;5114718;28;20035;-80
2023/01/06 04:19:25;;;;;;;0.30;0.30;;;;;;;10.45;76.02;101206.50;5099605;28;20765;-80
2023/01/06 04:22:25;;;;;;;0.20;0.20;;;;;;;10.47;75.84;101204.69;5127084;28;20034;-80
2023/01/06 04:25:07;;;;;;;0.20;0.20;;;;;;;10.37;75.46;101209.25;5079726;28;20126;-81
2023/01/06 04:27:48;;;;;;;0.32;0.32;;;;;;;10.39;76.37;101196.97;5118481;28;20127;-81
2023/01/06 04:30:23;;;;;;;0.20;0.20;;;;;;;10.37;75.48;101202.22;5097473;29;20051;-82
2023/01/06 04:33:04;;;;;;;0.30;0.30;;;;;;;10.29;74.99;101200.63;5090893;28;20051;-82
2023/01/06 04:35:44;;;;;;;0.20;0.20;;;;;;;10.34;75.49;101197.03;5088218;29;20043;-82
2023/01/06 04:38:32;;;;;;;0.30;0.30;;;;;;;10.34;75.75;101190.91;5102600;29;20035;-84
2023/01/06 04:41:20;;;;;;;0.20;0.20;;;;;;;10.29;75.16;101192.75;5112829;28;20031;-84
2023/01/06 04:44:12;;;;;;;2.10;1.15;;;;;;;10.25;75.26;101194.56;5097570;28;20050;-82
2023/01/06 04:46:51;;;;;;;0.20;0.20;;;;;;;10.25;75.47;101191.94;5128107;28;20054;-86
2023/01/06 04:49:22;;;;;;;0.30;0.30;;;;;;;10.22;75.65;101190.25;5108962;28;20182;-83
2023/01/06 04:52:00;;;;;;;0.20;0.20;;;;;;;10.26;75.55;101175.31;5108446;28;20119;-84
2023/01/06 04:54:39;;;;;;;0.20;0.20;;;;;;;10.21;75.82;101188.50;5108291;28;20477;-83
2023/01/06 04:57:18;;;;;;;0.20;0.20;;;;;;;10.20;75.77;101183.31;5089074;29;20058;-82
2023/01/06 05:00:03;;;;;;;0.20;0.20;;;;;;;10.24;75.86;101192.81;5122265;28;20040;-84
2023/01/06 05:02:46;;;;;;;0.30;0.30;;;;;;;10.26;76.20;101191.06;5108378;28;20939;-82
2023/01/06 05:05:17;;;;;;;0.30;0.30;;;;;;;10.19;76.25;101186.81;5101551;29;20035;-82
2023/01/06 05:07:47;;;;;;;0.20;0.20;;;;;;;10.25;76.35;101181.44;5100556;28;20054;-82
2023/01/06 05:10:18;;;;;;;0.45;0.45;;;;;;;10.21;75.75;101178.03;5079962;29;20035;-81
2023/01/06 05:12:48;;;;;;;0.30;0.30;;;;;;;10.18;76.24;101175.44;5100405;28;20399;-82
2023/01/06 05:15:19;;;;;;;0.65;0.65;;;;;;;10.18;75.79;101164.09;5078940;29;20575;-81
2023/01/06 05:17:49;;;;;;;0.30;0.30;;;;;;;10.18;76.36;101166.72;5115411;28;20032;-81
2023/01/06 05:20:20;;;;;;;0.20;0.20;;;;;;;10.28;76.50;101164.78;5110588;29;20024;-81
2023/01/06 05:22:53;;;;;;;0.60;0.60;;;;;;;10.22;76.52;101157.88;5118182;28;20036;-82
2023/01/06 05:25:23;;;;;;;0.55;0.55;;;;;;;10.18;76.79;101167.56;5121524;29;20134;-82
2023/01/06 05:27:54;;;;;;;0.20;0.20;;;;;;;10.19;76.50;101161.44;5103514;28;20031;-82
2023/01/06 05:30:24;;;;;;;0.40;0.40;;;;;;;10.17;76.34;101173.72;5120534;29;20031;-82
2023/01/06 05:32:55;;;;;;;1.02;1.02;;;;;;;10.23;76.55;101172.75;5091117;29;20249;-82
2023/01/06 05:35:25;;;;;;;0.20;0.20;;;;;;;10.20;76.57;101191.16;5102453;29;20667;-83
2023/01/06 05:37:56;;;;;;;0.60;0.60;;;;;;;10.21;77.21;101192.88;5120553;28;20129;-83
2023/01/06 05:40:27;;;;;;;0.30;0.30;;;;;;;10.15;76.91;101179.88;5108684;29;20083;-83
2023/01/06 05:42:57;;;;;;;0.30;0.30;;;;;;;10.19;76.82;101185.03;5101077;28;20124;-83
2023/01/06 05:45:28;;;;;;;0.30;0.30;;;;;;;10.15;77.00;101187.75;5104953;29;20030;-83
2023/01/06 05:48:01;;;;;;;0.20;0.20;;;;;;;10.22;76.99;101185.00;5117009;28;20059;-81
2023/01/06 05:50:31;;;;;;;0.30;0.30;;;;;;;10.19;76.63;101189.44;5083604;29;20087;-83
2023/01/06 05:53:01;;;;;;;0.20;0.20;;;;;;;10.17;76.50;101199.09;5139073;28;20111;-82
2023/01/06 05:55:32;;;;;;;0.20;0.20;;;;;;;10.16;76.97;101185.13;5095744;29;20135;-82
2023/01/06 05:58:03;;;;;;;0.20;0.20;;;;;;;10.17;77.01;101185.97;5114151;28;20124;-81
2023/01/06 06:00:33;;;;;;;0.30;0.30;;;;;;;10.15;76.69;101182.50;5092272;29;20039;-83
2023/01/06 06:03:14;;;;;;;0.20;0.20;;;;;;;10.18;76.91;101188.56;5070336;28;20050;-83
2023/01/06 06:05:45;;;;;;;0.45;0.45;;;;;;;10.18;76.83;101178.06;5121973;28;20028;-81
2023/01/06 06:08:16;;;;;;;0.20;0.20;;;;;;;10.17;76.89;101185.97;5123688;28;20035;-81
2023/01/06 06:10:46;;;;;;;0.20;0.20;;;;;;;10.18;76.78;101171.97;5116392;29;20078;-81
2023/01/06 06:13:17;;;;;;;0.28;0.28;;;;;;;10.19;76.72;101178.94;5124601;28;20062;-81
2023/01/06 06:15:47;;;;;;;0.20;0.20;;;;;;;10.24;76.20;101166.59;5119495;28;20094;-81
2023/01/06 06:18:18;;;;;;;0.20;0.20;;;;;;;10.20;76.25;101170.19;5124262;28;20126;-81
2023/01/06 06:20:48;;;;;;;0.30;0.30;;;;;;;10.19;76.28;101174.56;5113155;29;20126;-81
2023/01/06 06:23:19;;;;;;;0.20;0.20;;;;;;;10.19;76.43;101168.47;5118856;29;20042;-80
2023/01/06 06:25:50;;;;;;;0.20;0.20;;;;;;;10.20;76.18;101163.19;5105739;29;20036;-81
2023/01/06 06:28:21;;;;;;;0.40;0.40;;;;;;;10.24;76.25;101158.75;5119799;28;20465;-82
2023/01/06 06:30:51;;;;;;;0.28;0.28;;;;;;;10.24;76.22;101164.88;5104215;29;20246;-81
2023/01/06 06:33:22;;;;;;;0.20;0.20;;;;;;;10.24;76.24;101158.75;5133138;28;20042;-81
2023/01/06 06:35:57;;;;;;;0.20;0.20;;;;;;;10.26;76.30;101159.59;5137130;28;20036;-81
2023/01/06 06:38:28;;;;;;;0.30;0.30;;;;;;;10.30;76.40;101157.75;5110211;28;20516;-80
2023/01/06 06:40:59;;;;;;;0.20;0.20;;;;;;;10.29;76.26;101164.75;5139812;28;20027;-81
2023/01/06 06:43:32;;;;;;;0.28;0.28;;;;;;;10.27;76.64;101165.69;5116751;28;20090;-80
2023/01/06 06:46:03;;;;;;;0.20;0.20;;;;;;;10.33;76.42;101165.59;5111748;29;20094;-81
2023/01/06 06:48:34;;;;;;;0.20;0.20;;;;;;;10.29;76.64;101164.75;5134231;28;20063;-80
2023/01/06 06:51:09;;;;;;;0.20;0.20;;;;;;;10.24;77.01;101169.22;5109776;29;20407;-81
2023/01/06 06:53:40;;;;;;;0.20;0.20;;;;;;;10.26;76.72;101158.69;5120116;28;20070;-81
2023/01/06 06:56:12;;;;;;;0.20;0.20;;;;;;;10.23;77.06;101154.38;5121493;29;20031;-80
2023/01/06 06:58:43;;;;;;;0.30;0.30;;;;;;;10.24;77.05;101164.88;5126103;28;20040;-80
2023/01/06 07:01:16;;;;;;;0.60;0.60;;;;;;;10.27;77.16;101145.59;5141708;28;20083;-81
2023/01/06 07:03:48;;;;;;;0.25;0.25;;;;;;;10.26;77.03;101151.72;5089071;28;20057;-81
2023/01/06 07:06:21;;;;;;;0.20;0.20;;;;;;;10.27;77.15;101148.19;5135647;28;20032;-80
2023/01/06 07:08:53;;;;;;;0.20;0.20;;;;;;;10.24;76.89;101151.75;5143127;28;20187;-80
2023/01/06 07:11:23;;;;;;;0.85;0.55;;;;;;;10.23;76.99;101151.75;5116937;29;20034;-80
2023/01/06 07:13:54;;;;;;;0.75;0.75;;;;;;;10.21;77.02;101151.78;5135126;28;20111;-80
2023/01/06 07:16:25;;;;;;;0.30;0.30;;;;;;;10.22;77.36;101152.66;5099605;29;20040;-80
2023/01/06 07:18:56;;;;;;;0.63;0.60;;;;;;;10.27;76.81;101150.81;5151377;28;20044;-80
2023/01/06 07:21:26;;;;;;;0.30;0.30;;;;;;;10.28;76.99;101149.06;5127146;29;20015;-80
2023/01/06 07:23:57;;;;;;;0.20;0.20;;;;;;;10.27;76.94;101152.56;5137236;28;20030;-80
2023/01/06 07:26:27;;;;;;;0.35;0.35;;;;;;;10.26;76.79;101154.34;5131681;28;20031;-81
2023/01/06 07:28:58;;;;;;;0.20;0.20;;;;;;;10.35;76.80;101158.53;5128760;28;20078;-81
2023/01/06 07:31:28;;;;;;;0.28;0.28;;;;;;;10.23;77.22;101149.13;5112188;29;20034;-81
2023/01/06 07:33:59;;;;;;;0.20;0.20;;;;;;;10.21;76.93;101164.03;5132324;28;20111;-80
2023/01/06 07:36:29;;;;;;;0.30;0.30;;;;;;;10.20;77.13;101170.19;5133507;29;20330;-81
2023/01/06 07:39:00;;;;;;;0.32;0.32;;;;;;;10.29;76.80;101171.78;5149095;28;20155;-81
2023/01/06 07:41:31;;;;;;;0.20;0.20;;;;;;;10.29;76.85;101167.38;5131251;29;20032;-81
2023/01/06 07:44:01;;;;;;;0.20;0.20;;;;;;;10.27;76.97;101171.81;5131501;28;20067;-81
2023/01/06 07:46:32;;;;;;;1.10;0.40;;;;;;;10.27;77.19;101171.81;5110682;29;20032;-81
2023/01/06 07:49:02;;;;;;;0.28;0.28;;;;;;;10.21;77.40;101169.28;5143191;28;20091;-79
2023/01/06 07:51:33;;;;;;;0.52;0.52;;;;;;;10.24;77.61;101169.22;5117680;28;20798;-81
2023/01/06 07:54:03;;;;;;;0.20;0.20;;;;;;;10.23;77.21;101172.75;5110591;29;20202;-80
2023/01/06 07:56:34;;;;;;;0.57;0.57;;;;;;;10.25;77.53;101176.22;5125446;29;20042;-80
2023/01/06 07:59:04;;;;;;;0.20;0.20;;;;;;;10.29;77.27;101185.72;5120078;28;20090;-80
2023/01/06 08:01:35;;;;;;;0.20;0.20;;;;;;;10.30;77.20;101179.59;5140482;28;20372;-81
2023/01/06 08:04:06;;;;;;;0.28;0.28;;;;;;;10.35;77.10;101184.75;5085742;29;20035;-80
2023/01/06 08:06:40;;;;;;;0.20;0.20;;;;;;;10.37;77.28;101188.25;5110841;29;20035;-80
2023/01/06 08:09:10;;;;;;;0.20;0.20;;;;;;;10.32;77.50;101187.47;5140303;28;20052;-80
2023/01/06 08:11:41;;;;;;;0.20;0.20;;;;;;;10.29;77.73;101198.84;5107801;29;20035;-80
2023/01/06 08:14:12;;;;;;;0.40;0.40;;;;;;;10.36;77.56;101195.25;5121796;28;20138;-80
2023/01/06 08:16:42;;;;;;;0.20;0.20;;;;;;;10.37;77.71;101206.63;5128399;28;20042;-80
2023/01/06 08:19:13;;;;;;;0.30;0.30;;;;;;;10.36;77.64;101199.59;5113344;28;20024;-80
2023/01/06 08:21:43;;;;;;;0.20;0.20;;;;;;;10.35;77.82;101209.25;5109344;29;21323;-80
2023/01/06 08:24:19;;;;;;;0.28;0.28;;;;;;;10.36;77.80;101208.34;5101057;28;20039;-82
2023/01/06 08:26:56;;;;;;;0.20;0.20;;;;;;;10.37;78.09;101214.50;5110964;28;20059;-81
2023/01/06 08:29:29;;;;;;;0.68;0.68;;;;;;;10.35;78.44;101211.88;5099154;28;20036;-81
2023/01/06 08:32:02;;;;;;;0.20;0.20;;;;;;;10.28;78.71;101205.00;5108068;29;20059;-81
2023/01/06 08:34:32;;;;;;;0.20;0.20;;;;;;;10.31;78.45;101198.84;5118169;28;20661;-79
2023/01/06 08:37:06;;;;;;;0.20;0.20;;;;;;;10.34;78.72;101210.13;5105987;29;20028;-80
2023/01/06 08:39:36;;;;;;;0.20;0.20;;;;;;;10.35;78.81;101205.75;5118897;28;20056;-81
2023/01/06 08:42:10;;;;;;;0.35;0.35;;;;;;;10.43;78.93;101203.03;5120902;28;20062;-80
2023/01/06 08:44:43;;;;;;;0.45;0.45;;;;;;;10.33;79.28;101211.03;5119319;28;20059;-81
2023/01/06 08:47:14;;;;;;;0.30;0.30;;;;;;;10.38;79.43;101201.34;5108436;29;20027;-80
2023/01/06 08:49:45;;;;;;;0.20;0.20;;;;;;;10.33;79.83;101203.16;5129138;28;20622;-79
2023/01/06 08:52:15;;;;;;;0.20;0.20;;;;;;;10.29;80.16;101211.97;5123889;29;20035;-80
2023/01/06 08:54:46;;;;;;;0.28;0.28;;;;;;;10.31;80.38;101210.19;5104335;29;20048;-80
2023/01/06 08:57:16;;;;;;;13.68;1.85;;;;;;;10.31;80.88;101209.34;5132282;28;20041;-80
2023/01/06 08:59:47;;;;;;;0.50;0.50;;;;;;;10.30;81.12;101226.81;5127668;28;20039;-81
2023/01/06 09:02:17;;;;;;;0.20;0.20;;;;;;;10.30;81.51;101233.81;5083952;29;20114;-81
2023/01/06 09:04:48;;;;;;;0.20;0.20;;;;;;;10.29;82.11;101243.44;5124490;28;20376;-80
2023/01/06 09:07:18;;;;;;;0.20;0.20;;;;;;;10.32;81.98;101253.03;5116347;29;20032;-80
2023/01/06 09:09:49;;;;;;;0.20;0.20;;;;;;;10.28;82.75;101252.22;5109959;28;20555;-80
2023/01/06 09:12:20;;;;;;;0.30;0.30;;;;;;;10.29;82.76;101258.31;5108213;29;20479;-81
2023/01/06 09:14:50;;;;;;;0.20;0.20;;;;;;;10.25;84.38;101247.00;5105032;29;20048;-80
2023/01/06 09:17:21;;;;;;;0.20;0.20;;;;;;;10.21;84.74;101245.31;5125662;29;20148;-81
2023/01/06 09:19:51;;;;;;;0.20;0.20;;;;;;;10.19;85.35;101249.75;5114612;28;20031;-81
2023/01/06 09:22:22;;;;;;;0.20;0.20;;;;;;;10.24;85.23;101250.53;5141164;28;20546;-81
2023/01/06 09:24:52;;;;;;;0.30;0.30;;;;;;;10.22;85.04;101257.53;5088518;29;20067;-81
2023/01/06 09:27:23;;;;;;;0.20;0.20;;;;;;;10.22;85.31;101252.31;5129720;28;20043;-81
2023/01/06 09:29:53;;;;;;;0.30;0.30;;;;;;;10.18;84.82;101248.00;5141063;28;20051;-80
2023/01/06 09:32:24;;;;;;;0.20;0.20;;;;;;;10.22;84.98;101255.81;5109204;29;20136;-81
2023/01/06 09:34:54;;;;;;;0.20;0.20;;;;;;;10.19;86.57;101253.22;5125666;28;20066;-80
2023/01/06 09:37:25;;;;;;;0.30;0.30;;;;;;;10.12;87.88;101267.34;5150842;28;20088;-81
2023/01/06 09:39:58;;;;;;;0.20;0.20;;;;;;;10.13;88.92;101263.81;5117719;28;20063;-83
2023/01/06 09:43:09;;;;;;;0.28;0.28;;;;;;;10.07;89.43;101266.56;5144197;28;20036;-83
2023/01/06 09:45:54;;;;;;;0.35;0.35;;;;;;;10.16;89.38;101273.38;5127550;28;20027;-83
2023/01/06 09:48:57;;;;;;;0.20;0.20;;;;;;;10.15;89.21;101279.53;5093682;28;20051;-84
2023/01/06 09:51:35;;;;;;;0.30;0.30;;;;;;;10.12;89.20;101293.56;5096782;29;20044;-83
2023/01/06 09:54:40;;;;;;;0.20;0.20;;;;;;;10.10;89.00;101290.09;5138902;28;20044;-83
2023/01/06 09:57:28;;;;;;;0.20;0.20;;;;;;;10.14;88.74;101285.66;5077849;29;20043;-82
2023/01/06 10:00:16;;;;;;;0.20;0.20;;;;;;;10.15;88.75;101283.03;5123865;28;20067;-82
2023/01/06 10:02:51;;;;;;;0.50;0.50;;;;;;;10.15;89.24;101285.66;5136575;28;20028;-83
2023/01/06 10:06:01;;;;;;;0.20;0.20;;;;;;;10.11;87.99;101288.34;5126595;29;20035;-83
2023/01/06 10:08:56;;;;;;;0.25;0.25;;;;;;;10.14;87.92;101286.53;5111796;28;20069;-83
2023/01/06 10:12:08;;;;;;;0.20;0.20;;;;;;;10.18;89.03;101300.47;5126173;28;20119;-83
2023/01/06 10:14:56;;;;;;;0.30;0.30;;;;;;;10.17;89.83;101290.88;5114978;28;20384;-83
2023/01/06 10:17:36;;;;;;;0.73;0.73;;;;;;;10.15;89.67;101292.63;5115226;29;20035;-83
2023/01/06 10:20:29;;;;;;;0.20;0.20;;;;;;;10.14;90.09;101289.16;5111963;29;20044;-84
2023/01/06 10:24:07;;;;;;;0.30;0.30;;;;;;;10.14;89.50;101285.66;5115625;28;20123;-84
2023/01/06 10:27:00;;;;;;;0.55;0.55;;;;;;;10.16;89.81;101289.13;5100187;29;20100;-84
2023/01/06 10:29:59;;;;;;;0.20;0.20;;;;;;;10.15;90.00;101292.63;5015630;29;20072;-83
2023/01/06 10:36:25;;;;;;;0.20;0.20;;;;;;;10.14;91.09;101290.91;5089607;29;20043;-84
2023/01/06 10:39:06;;;;;;;0.20;0.20;;;;;;;10.15;90.94;101293.53;5115816;28;20091;-83
2023/01/06 10:41:49;;;;;;;0.20;0.20;;;;;;;10.16;90.35;101290.00;5127314;28;20067;-83
2023/01/06 10:44:19;;;;;;;0.20;0.20;;;;;;;10.26;89.28;101290.72;5114977;28;20200;-84
2023/01/06 10:46:55;;;;;;;0.30;0.30;;;;;;;10.24;90.14;101289.88;5082081;29;20245;-83
2023/01/06 10:49:25;;;;;;;0.30;0.30;;;;;;;10.27;90.08;101289.81;5102718;28;20052;-83
2023/01/06 10:52:02;;;;;;;0.32;0.32;;;;;;;10.29;89.84;101285.41;5096516;29;20094;-82
2023/01/06 10:54:34;;;;;;;0.30;0.30;;;;;;;10.30;89.44;101288.91;5107755;28;20070;-81
2023/01/06 10:57:13;;;;;;;0.20;0.20;;;;;;;10.34;89.63;101288.81;5101681;29;20031;-82
2023/01/06 11:00:09;;;;;;;0.20;0.20;;;;;;;10.41;89.05;101287.00;5123269;28;20040;-81
2023/01/06 11:02:47;;;;;;;0.50;0.50;;;;;;;10.40;89.05;101287.91;5103484;28;20036;-81
2023/01/06 11:05:22;;;;;;;0.20;0.20;;;;;;;10.39;89.15;101279.16;5095900;29;20028;-82
2023/01/06 11:08:01;;;;;;;0.28;0.28;;;;;;;10.46;88.51;101286.91;5104511;28;20038;-82
2023/01/06 11:10:40;;;;;;;0.20;0.20;;;;;;;10.48;89.06;101287.75;5116440;28;20631;-81
2023/01/06 11:13:29;;;;;;;0.30;0.30;;;;;;;10.51;88.76;101290.31;5121046;29;20047;-82
2023/01/06 11:16:03;;;;;;;0.20;0.20;;;;;;;10.57;87.97;101290.22;5101747;29;20032;-82
2023/01/06 11:18:36;;;;;;;0.40;0.40;;;;;;;10.54;87.83;101287.63;5133157;28;20040;-82
2023/01/06 11:21:13;;;;;;;0.20;0.20;;;;;;;10.50;87.35;101286.81;5111549;29;20047;-82
2023/01/06 11:23:48;;;;;;;0.30;0.30;;;;;;;10.57;87.35;101277.09;5107283;29;20727;-82
2023/01/06 11:26:22;;;;;;;0.30;0.30;;;;;;;10.56;87.01;101277.97;5115641;28;20046;-82
2023/01/06 11:29:15;;;;;;;0.38;0.38;;;;;;;10.56;87.25;101283.22;5125856;28;20044;-82
2023/01/06 11:31:47;;;;;;;0.43;0.43;;;;;;;10.59;87.20;101280.56;5116822;29;20035;-82
2023/01/06 11:34:24;;;;;;;0.30;0.30;;;;;;;10.61;87.03;101284.03;5143179;28;20031;-82
2023/01/06 11:36:56;;;;;;;0.20;0.20;;;;;;;10.65;87.10;101276.97;5146482;28;20039;-82
2023/01/06 11:39:33;;;;;;;0.20;0.20;;;;;;;10.63;87.20;101279.59;5131554;28;20043;-82
2023/01/06 11:42:12;;;;;;;0.20;0.20;;;;;;;10.63;87.35;101273.50;5142691;28;20231;-82
2023/01/06 11:44:43;;;;;;;1.10;0.95;;;;;;;10.64;87.00;101275.22;5125763;28;20047;-83
2023/01/06 11:47:23;;;;;;;0.30;0.30;;;;;;;10.59;87.44;101269.19;5114841;29;20082;-82
2023/01/06 11:50:00;;;;;;;1.73;1.08;;;;;;;10.54;88.66;101269.25;5140185;28;20047;-82
2023/01/06 11:52:32;;;;;;;0.22;0.22;;;;;;;10.58;89.33;101268.31;5125110;28;20020;-82
2023/01/06 11:55:05;;;;;;;0.20;0.20;;;;;;;10.54;90.13;101270.16;5124333;28;20079;-82
2023/01/06 11:57:47;;;;;;;;;;;;;;;10.52;91.14;101260.56;5143258;28;20293;-83
2023/01/06 12:00:45;;;;;;;0.20;0.20;;;;;;;10.49;91.84;101260.63;5125302;28;19914;-83
2023/01/06 12:03:31;;;;;;;0.50;0.50;;;;;;;10.54;91.85;101258.75;5125545;28;20126;-83
2023/01/06 12:06:26;;;;;;;0.20;0.20;;;;;;;10.49;91.83;101264.13;5100701;29;20031;-83
2023/01/06 12:09:24;;;;;;;0.30;0.30;;;;;;;10.50;92.15;101263.22;5138671;28;20095;-82
2023/01/06 12:11:57;;;;;;;0.28;0.28;;;;;;;10.54;92.27;101269.25;5127933;28;20032;-84
2023/01/06 12:14:34;;;;;;;0.20;0.20;;;;;;;10.61;91.51;101267.41;5116590;28;20059;-82
2023/01/06 12:17:46;;;;;;;0.30;0.30;;;;;;;10.58;92.01;101268.31;5144374;28;20031;-82